Aviation Digital Data Service (ADDS)

Output produced by METARs form (2300 UTC 30 July 2015)
found at http://aviationweather.gov/adds/metars/
 
KFKL 301834Z 3019/3118 28010G16KT P6SM BKN050 
     FM302300 26005KT P6SM SKC AMD LTD TO CLD VIS AND WIND